Time;durP1;ratioP1;P1;durP2;ratioP2;P2;SDS_P1;SDS_P2;PMS_P1;PMS_P2;Temp;Humidity;BMP_temperature;BMP_pressure;BME280_temperature;BME280_humidity;BME280_pressure;Samples;Min_cycle;Max_cycle;Signal;HPM_P1;HPM_P2
2023/12/28 00:01:22;;;;;;;5.60;4.43;;;21.80;99.90;;;;;;5016417;28;20114;-53
2023/12/28 00:03:47;;;;;;;6.03;5.15;;;21.80;99.90;;;;;;5016639;28;20093;-53
2023/12/28 00:06:13;;;;;;;6.93;5.40;;;21.80;99.90;;;;;;5016558;28;20026;-53
2023/12/28 00:08:40;;;;;;;8.70;5.15;;;21.80;99.90;;;;;;5015297;28;20034;-53
2023/12/28 00:11:06;;;;;;;5.30;4.57;;;21.80;99.90;;;;;;5016677;28;20049;-53
2023/12/28 00:13:31;;;;;;;6.55;4.85;;;21.80;99.90;;;;;;5016254;28;20092;-51
2023/12/28 00:15:57;;;;;;;5.78;4.47;;;21.70;99.90;;;;;;5016336;28;20025;-54
2023/12/28 00:18:23;;;;;;;5.53;4.43;;;21.70;99.90;;;;;;5016317;28;20034;-53
2023/12/28 00:20:49;;;;;;;6.28;4.88;;;21.70;99.90;;;;;;5015104;28;20445;-53
2023/12/28 00:23:15;;;;;;;5.65;5.00;;;21.70;99.90;;;;;;5016282;28;20098;-52
2023/12/28 00:25:41;;;;;;;5.78;4.28;;;21.70;99.90;;;;;;5016275;28;20029;-52
2023/12/28 00:28:07;;;;;;;6.63;4.47;;;21.70;99.90;;;;;;5016122;28;20061;-52
2023/12/28 00:30:33;;;;;;;5.15;4.47;;;21.70;99.90;;;;;;5015992;28;20104;-53
2023/12/28 00:32:59;;;;;;;5.32;4.50;;;21.60;99.90;;;;;;5016060;28;20545;-52
2023/12/28 00:35:24;;;;;;;5.88;4.95;;;21.60;99.90;;;;;;5014762;28;20040;-52
2023/12/28 00:37:50;;;;;;;5.35;4.70;;;21.60;99.90;;;;;;5015875;28;20026;-53
2023/12/28 00:40:16;;;;;;;5.25;4.65;;;21.60;99.90;;;;;;5015722;28;20029;-53
2023/12/28 00:42:42;;;;;;;5.93;4.40;;;21.60;99.90;;;;;;5016158;28;20105;-52
2023/12/28 00:45:09;;;;;;;5.00;4.45;;;21.50;99.90;;;;;;5015908;28;20483;-53
2023/12/28 00:47:35;;;;;;;5.03;4.13;;;21.50;99.90;;;;;;5015561;28;20075;-53
2023/12/28 00:50:01;;;;;;;5.15;4.65;;;21.50;99.90;;;;;;5015740;28;20120;-52
2023/12/28 00:52:27;;;;;;;5.10;4.35;;;21.50;99.90;;;;;;5015551;28;20025;-53
2023/12/28 00:54:52;;;;;;;5.10;4.22;;;21.50;99.90;;;;;;5014098;28;20429;-53
2023/12/28 00:57:18;;;;;;;5.00;4.50;;;21.50;99.90;;;;;;5015558;28;20097;-53
2023/12/28 00:59:44;;;;;;;5.75;4.60;;;21.50;99.90;;;;;;5015286;28;20082;-53
2023/12/28 01:02:10;;;;;;;5.95;4.70;;;21.40;99.90;;;;;;5027895;23;20050;-49
2023/12/28 01:04:36;;;;;;;5.82;4.10;;;21.40;99.90;;;;;;5015344;28;20527;-49
2023/12/28 01:07:04;;;;;;;4.95;4.13;;;21.40;99.90;;;;;;5015291;28;20022;-47
2023/12/28 01:09:32;;;;;;;5.13;4.53;;;21.40;99.90;;;;;;5014703;28;20379;-48
2023/12/28 01:11:58;;;;;;;5.43;4.18;;;21.40;99.90;;;;;;5015361;28;20026;-47
2023/12/28 01:14:24;;;;;;;5.05;4.55;;;21.30;99.90;;;;;;5013813;28;20030;-47
2023/12/28 01:16:50;;;;;;;4.65;4.07;;;21.30;99.90;;;;;;5015133;28;20022;-47
2023/12/28 01:19:16;;;;;;;5.80;4.78;;;21.30;99.90;;;;;;5015078;28;20022;-47
2023/12/28 01:21:42;;;;;;;5.47;4.85;;;21.30;99.90;;;;;;5015300;28;20033;-47
2023/12/28 01:24:08;;;;;;;4.78;4.18;;;21.30;99.90;;;;;;5015007;28;20492;-47
2023/12/28 01:26:34;;;;;;;4.95;4.45;;;21.30;99.90;;;;;;5014885;28;20065;-47
2023/12/28 01:29:02;;;;;;;5.50;4.88;;;21.30;99.90;;;;;;5014712;28;20034;-47
2023/12/28 01:31:29;;;;;;;5.15;4.65;;;21.20;99.90;;;;;;5014894;28;20449;-47
2023/12/28 01:33:54;;;;;;;4.90;4.40;;;21.30;99.90;;;;;;5014959;28;20045;-47
2023/12/28 01:36:21;;;;;;;5.38;4.32;;;21.30;99.90;;;;;;5014794;28;20073;-47
2023/12/28 01:38:47;;;;;;;4.90;4.40;;;21.20;99.90;;;;;;5014493;28;20058;-48
2023/12/28 01:41:15;;;;;;;5.90;4.45;;;21.20;99.90;;;;;;5014934;28;20079;-48
2023/12/28 01:43:42;;;;;;;6.55;4.80;;;21.20;99.90;;;;;;5014924;28;20052;-47
2023/12/28 01:46:13;;;;;;;5.85;5.00;;;21.20;99.90;;;;;;5014638;28;20493;-48
2023/12/28 01:48:39;;;;;;;5.10;4.70;;;21.20;99.90;;;;;;5014542;28;20042;-48
2023/12/28 01:51:05;;;;;;;5.80;4.65;;;21.10;99.90;;;;;;5014596;28;20026;-48
2023/12/28 01:53:31;;;;;;;5.20;4.57;;;21.10;99.90;;;;;;5014482;28;20370;-48
2023/12/28 01:55:58;;;;;;;4.40;4.00;;;21.10;99.90;;;;;;5014479;28;20111;-48
2023/12/28 01:58:26;;;;;;;5.68;4.88;;;21.10;99.90;;;;;;5013158;28;20026;-48
2023/12/28 02:00:52;;;;;;;5.57;4.07;;;21.10;99.90;;;;;;5026318;22;20097;-51
2023/12/28 02:03:18;;;;;;;4.90;4.43;;;21.10;99.90;;;;;;5014396;28;20480;-51
2023/12/28 02:05:44;;;;;;;6.78;4.78;;;21.10;99.90;;;;;;5013238;28;20022;-52
2023/12/28 02:08:10;;;;;;;4.80;4.07;;;21.00;99.90;;;;;;5014333;28;20470;-51
2023/12/28 02:10:36;;;;;;;4.53;4.07;;;21.00;99.90;;;;;;5014039;28;20036;-51
2023/12/28 02:13:02;;;;;;;5.05;4.50;;;21.00;99.90;;;;;;5014240;28;20087;-51
2023/12/28 02:15:27;;;;;;;4.95;4.13;;;21.00;99.90;;;;;;5014245;28;20104;-51
2023/12/28 02:17:53;;;;;;;5.35;4.35;;;21.00;99.90;;;;;;5014006;28;20056;-51
2023/12/28 02:20:20;;;;;;;4.30;3.90;;;21.00;99.90;;;;;;5013919;28;20026;-51
2023/12/28 02:22:47;;;;;;;4.93;4.43;;;21.00;99.90;;;;;;5013329;28;20470;-51
2023/12/28 02:25:13;;;;;;;4.28;3.85;;;21.00;99.90;;;;;;5014030;28;20076;-50
2023/12/28 02:27:43;;;;;;;5.38;4.30;;;20.90;99.90;;;;;;5013736;28;20077;-51
2023/12/28 02:30:10;;;;;;;4.97;4.35;;;20.90;99.90;;;;;;5013809;28;20505;-51
2023/12/28 02:32:42;;;;;;;5.03;4.40;;;20.90;99.90;;;;;;5013816;28;20473;-51
2023/12/28 02:35:37;;;;;;;4.88;4.28;;;20.90;99.90;;;;;;5013508;28;20030;-51
2023/12/28 02:38:08;;;;;;;6.43;4.82;;;20.90;99.90;;;;;;5012966;28;20486;-51
2023/12/28 02:40:40;;;;;;;6.20;4.57;;;20.90;99.90;;;;;;5013693;28;20359;-51
2023/12/28 02:43:07;;;;;;;5.90;4.43;;;20.90;99.90;;;;;;4996220;28;20025;-51
2023/12/28 02:45:33;;;;;;;4.68;4.20;;;20.90;99.90;;;;;;5013607;28;20018;-51
2023/12/28 02:47:59;;;;;;;5.55;5.00;;;20.80;99.90;;;;;;5013361;28;20040;-51
2023/12/28 02:50:24;;;;;;;5.07;4.57;;;20.80;99.90;;;;;;5013423;28;20026;-51
2023/12/28 02:52:50;;;;;;;4.80;4.30;;;20.80;99.90;;;;;;5013400;28;20045;-51
2023/12/28 02:55:16;;;;;;;4.72;4.05;;;20.80;99.90;;;;;;5013613;28;20381;-51
2023/12/28 02:57:44;;;;;;;5.15;4.57;;;20.80;99.90;;;;;;5013316;28;20033;-51
2023/12/28 03:02:50;;;;;;;3.92;3.53;;;20.80;99.90;;;;;;5011915;28;20061;-52
2023/12/28 03:05:16;;;;;;;5.05;4.55;;;20.80;99.90;;;;;;5011949;28;20030;-56
2023/12/28 03:07:42;;;;;;;4.72;4.18;;;20.80;99.90;;;;;;5013164;28;20129;-51
2023/12/28 03:10:10;;;;;;;5.43;4.60;;;20.80;99.90;;;;;;5013106;28;20389;-51
2023/12/28 03:12:38;;;;;;;5.13;4.45;;;20.80;99.90;;;;;;5012932;28;20053;-52
2023/12/28 03:15:05;;;;;;;5.45;4.50;;;20.80;99.90;;;;;;5013296;28;20029;-52
2023/12/28 03:17:32;;;;;;;5.18;4.25;;;20.80;99.90;;;;;;5012945;28;20033;-52
2023/12/28 03:20:01;;;;;;;4.75;4.32;;;20.70;99.90;;;;;;5012877;28;20030;-52
2023/12/28 03:22:27;;;;;;;4.72;4.32;;;20.70;99.90;;;;;;5012999;28;20145;-51
2023/12/28 03:24:53;;;;;;;4.30;3.42;;;20.70;99.90;;;;;;5012879;28;20046;-52
2023/12/28 03:27:18;;;;;;;4.93;4.20;;;20.70;99.90;;;;;;5012881;28;20097;-51
2023/12/28 03:29:44;;;;;;;4.30;3.75;;;20.70;99.90;;;;;;5012794;28;20104;-51
2023/12/28 03:32:10;;;;;;;5.80;4.53;;;20.70;99.90;;;;;;5012800;28;20018;-51
2023/12/28 03:34:36;;;;;;;4.72;4.22;;;20.70;99.90;;;;;;5012861;28;20519;-52
2023/12/28 03:37:02;;;;;;;4.57;4.10;;;20.60;99.90;;;;;;5012693;28;20105;-51
2023/12/28 03:39:28;;;;;;;5.40;4.50;;;20.60;99.90;;;;;;5012553;28;20026;-50
2023/12/28 03:41:54;;;;;;;4.90;4.40;;;20.60;99.90;;;;;;5012699;28;20466;-51
2023/12/28 03:44:21;;;;;;;4.88;3.80;;;20.60;99.90;;;;;;5011578;28;20029;-51
2023/12/28 03:46:48;;;;;;;5.28;4.35;;;20.60;99.90;;;;;;5012813;28;20100;-51
2023/12/28 03:49:18;;;;;;;3.75;3.45;;;20.60;99.90;;;;;;5012593;28;20056;-52
2023/12/28 03:51:44;;;;;;;5.53;4.65;;;20.60;99.90;;;;;;5012688;28;20032;-52
2023/12/28 03:54:10;;;;;;;5.57;4.45;;;20.60;99.90;;;;;;5012463;28;20378;-52
2023/12/28 03:56:36;;;;;;;4.18;3.70;;;20.60;99.90;;;;;;5011437;28;20022;-52
2023/12/28 03:59:02;;;;;;;4.10;3.70;;;20.60;99.90;;;;;;5012431;28;20017;-52
2023/12/28 04:01:28;;;;;;;3.95;3.55;;;20.60;99.90;;;;;;5024282;23;20064;-48
2023/12/28 04:03:54;;;;;;;4.65;3.95;;;20.60;99.90;;;;;;5012499;28;20392;-48
2023/12/28 04:06:19;;;;;;;4.30;3.90;;;20.60;99.90;;;;;;5012376;28;20093;-49
2023/12/28 04:08:45;;;;;;;4.32;3.92;;;20.60;99.90;;;;;;5012314;28;20033;-48
2023/12/28 04:11:11;;;;;;;4.15;3.75;;;20.50;99.90;;;;;;5012268;28;20096;-48
2023/12/28 04:13:37;;;;;;;6.63;4.32;;;20.50;99.90;;;;;;5012586;28;20041;-49
2023/12/28 04:16:03;;;;;;;4.53;3.70;;;20.50;99.90;;;;;;5012307;28;20423;-48
2023/12/28 04:18:30;;;;;;;4.65;4.05;;;20.50;99.90;;;;;;5012241;28;20048;-48
2023/12/28 04:20:56;;;;;;;4.43;4.00;;;20.50;99.90;;;;;;5012265;28;20539;-49
2023/12/28 04:23:21;;;;;;;4.65;3.95;;;20.50;99.90;;;;;;5012063;28;20038;-48
2023/12/28 04:25:47;;;;;;;6.60;4.20;;;20.50;99.90;;;;;;5012262;28;20458;-49
2023/12/28 04:28:13;;;;;;;4.45;4.05;;;20.50;99.90;;;;;;5010847;28;20076;-48
2023/12/28 04:30:39;;;;;;;4.55;3.80;;;20.50;99.90;;;;;;5012451;28;20041;-49
2023/12/28 04:33:04;;;;;;;4.00;3.60;;;20.50;99.90;;;;;;5012187;28;20026;-49
2023/12/28 04:35:30;;;;;;;4.25;3.80;;;20.40;99.90;;;;;;5012090;28;20378;-49
2023/12/28 04:37:56;;;;;;;4.40;3.80;;;20.40;99.90;;;;;;5012026;28;20500;-49
2023/12/28 04:40:22;;;;;;;4.53;3.85;;;20.40;99.90;;;;;;5012126;28;20355;-49
2023/12/28 04:42:47;;;;;;;4.45;3.78;;;20.40;99.90;;;;;;5012146;28;20478;-49
2023/12/28 04:45:14;;;;;;;7.97;3.80;;;20.40;99.90;;;;;;5011949;28;20026;-49
2023/12/28 04:47:40;;;;;;;3.83;3.50;;;20.40;99.90;;;;;;5015870;28;20026;-49
2023/12/28 04:50:07;;;;;;;5.63;3.60;;;20.40;99.90;;;;;;5015670;28;20109;-48
2023/12/28 04:52:33;;;;;;;6.75;4.25;;;20.40;99.90;;;;;;5015619;28;20030;-49
2023/12/28 04:54:59;;;;;;;4.32;3.83;;;20.40;99.90;;;;;;5015789;28;20026;-49
2023/12/28 04:57:26;;;;;;;10.10;3.85;;;20.30;99.90;;;;;;5015800;28;20517;-49
2023/12/28 04:59:52;;;;;;;3.97;3.42;;;20.40;99.90;;;;;;5015557;28;20433;-49
2023/12/28 05:02:18;;;;;;;4.57;4.00;;;20.40;99.90;;;;;;5015841;28;20041;-49
2023/12/28 05:04:43;;;;;;;6.40;3.50;;;20.40;99.90;;;;;;5015402;28;20030;-49
2023/12/28 05:07:10;;;;;;;4.10;3.70;;;20.30;99.90;;;;;;5014335;28;20048;-49
2023/12/28 05:09:35;;;;;;;4.25;3.80;;;20.30;99.90;;;;;;5015268;28;20038;-49
2023/12/28 05:12:01;;;;;;;4.03;3.63;;;20.30;99.90;;;;;;5015296;28;20021;-49
2023/12/28 05:14:27;;;;;;;3.67;3.30;;;20.30;99.90;;;;;;5015239;28;20038;-49
2023/12/28 05:16:53;;;;;;;3.78;3.47;;;20.30;99.90;;;;;;5015247;28;20022;-48
2023/12/28 05:19:18;;;;;;;3.97;3.63;;;20.30;99.90;;;;;;5015147;28;20040;-48
2023/12/28 05:21:44;;;;;;;4.45;4.05;;;20.30;99.90;;;;;;5013912;28;20188;-49
2023/12/28 05:24:10;;;;;;;3.63;3.17;;;20.30;99.90;;;;;;5015154;28;20426;-49
2023/12/28 05:26:36;;;;;;;4.47;3.80;;;20.30;99.90;;;;;;5015095;28;20026;-49
2023/12/28 05:29:02;;;;;;;5.47;3.88;;;20.30;99.90;;;;;;5014852;28;20033;-48
2023/12/28 05:31:28;;;;;;;3.90;3.33;;;20.30;99.90;;;;;;5014879;28;20022;-49
2023/12/28 05:33:54;;;;;;;4.18;3.78;;;20.30;99.90;;;;;;5014950;28;20029;-49
2023/12/28 05:36:20;;;;;;;4.07;3.55;;;20.30;99.90;;;;;;5014905;28;20030;-49
2023/12/28 05:38:45;;;;;;;3.50;3.17;;;20.30;99.90;;;;;;5014860;28;20433;-49
2023/12/28 05:41:11;;;;;;;5.22;3.42;;;20.30;99.90;;;;;;5014950;28;20053;-49
2023/12/28 05:43:38;;;;;;;3.63;3.20;;;20.20;99.90;;;;;;5014611;28;20037;-49
2023/12/28 05:46:04;;;;;;;3.45;3.15;;;20.20;99.90;;;;;;5014642;28;20030;-49
2023/12/28 05:48:30;;;;;;;4.00;3.60;;;20.20;99.90;;;;;;5014504;28;20157;-48
2023/12/28 05:50:59;;;;;;;4.63;3.72;;;20.20;99.90;;;;;;5014593;28;20029;-48
2023/12/28 05:53:26;;;;;;;3.45;3.10;;;20.20;99.90;;;;;;5014728;28;20121;-49
2023/12/28 05:55:52;;;;;;;4.20;3.80;;;20.20;99.90;;;;;;5012870;28;20490;-49
2023/12/28 05:58:18;;;;;;;4.10;3.70;;;20.20;99.90;;;;;;5013766;28;20038;-48
2023/12/28 06:00:46;;;;;;;3.40;3.10;;;20.20;99.90;;;;;;5014371;28;20026;-49
2023/12/28 06:03:12;;;;;;;6.93;3.95;;;20.20;99.90;;;;;;5013167;28;20426;-49
2023/12/28 06:05:37;;;;;;;4.13;3.63;;;20.20;99.90;;;;;;5014202;28;20119;-48
2023/12/28 06:08:04;;;;;;;5.35;4.13;;;20.20;99.90;;;;;;5014148;28;20117;-49
2023/12/28 06:10:30;;;;;;;4.38;3.28;;;20.20;99.90;;;;;;5014203;28;20076;-48
2023/12/28 06:12:55;;;;;;;4.47;3.78;;;20.20;99.90;;;;;;5014091;28;20093;-49
2023/12/28 06:15:21;;;;;;;3.95;3.33;;;20.20;99.90;;;;;;5013926;28;20069;-49
2023/12/28 06:17:47;;;;;;;5.82;3.83;;;20.10;99.90;;;;;;5014006;28;20033;-49
2023/12/28 06:20:13;;;;;;;6.78;3.78;;;20.20;99.90;;;;;;5014385;28;20466;-48
2023/12/28 06:22:39;;;;;;;7.85;3.47;;;20.10;99.90;;;;;;5014036;28;20026;-49
2023/12/28 06:25:06;;;;;;;4.00;3.60;;;20.10;99.90;;;;;;5013884;28;20018;-48
2023/12/28 06:27:32;;;;;;;4.13;3.43;;;20.10;99.90;;;;;;5013919;28;20050;-49
2023/12/28 06:29:57;;;;;;;3.95;3.55;;;20.10;99.90;;;;;;5013877;28;20061;-48
2023/12/28 06:32:23;;;;;;;6.05;3.90;;;20.10;99.90;;;;;;5013630;28;20025;-49
2023/12/28 06:34:49;;;;;;;4.40;3.72;;;20.10;99.90;;;;;;5013694;28;20462;-49
2023/12/28 06:37:15;;;;;;;4.38;3.97;;;20.10;99.90;;;;;;5013849;28;20026;-49
2023/12/28 06:39:41;;;;;;;4.80;3.25;;;20.10;99.90;;;;;;5013713;28;20030;-48
2023/12/28 06:42:07;;;;;;;4.00;3.70;;;20.10;99.90;;;;;;5012249;28;20041;-49
2023/12/28 06:44:33;;;;;;;4.43;3.78;;;20.10;99.90;;;;;;5013458;28;20018;-48
2023/12/28 06:46:59;;;;;;;4.75;4.10;;;20.10;99.90;;;;;;5012117;28;20022;-48
2023/12/28 06:49:25;;;;;;;5.15;4.00;;;20.10;99.90;;;;;;5013301;28;20048;-48
2023/12/28 06:51:51;;;;;;;4.38;3.97;;;20.10;99.90;;;;;;5012069;28;20034;-48
2023/12/28 06:54:17;;;;;;;5.75;3.78;;;20.00;99.90;;;;;;5013403;28;20034;-48
2023/12/28 06:56:43;;;;;;;4.47;4.07;;;20.00;99.90;;;;;;5013275;28;20096;-49
2023/12/28 06:59:12;;;;;;;5.18;3.70;;;20.00;99.90;;;;;;5012039;28;20064;-49
2023/12/28 07:01:41;;;;;;;4.38;3.63;;;20.00;99.90;;;;;;5013207;28;20092;-49
2023/12/28 07:04:07;;;;;;;4.60;3.88;;;20.00;99.90;;;;;;5013490;28;20381;-49
2023/12/28 07:06:32;;;;;;;4.30;3.35;;;20.00;99.90;;;;;;5011946;28;20018;-49
2023/12/28 07:08:58;;;;;;;4.30;3.38;;;20.00;99.90;;;;;;5012759;28;20030;-48
2023/12/28 07:11:24;;;;;;;5.07;4.00;;;20.00;99.90;;;;;;5013128;28;20492;-49
2023/12/28 07:13:50;;;;;;;4.38;3.72;;;20.00;99.90;;;;;;5013120;28;20104;-49
2023/12/28 07:16:16;;;;;;;4.38;3.97;;;19.90;99.90;;;;;;5013240;28;20022;-49
2023/12/28 07:18:41;;;;;;;4.38;3.72;;;19.90;99.90;;;;;;5012918;28;20045;-48
2023/12/28 07:21:11;;;;;;;3.90;3.60;;;20.00;99.90;;;;;;5012952;28;20030;-49
2023/12/28 07:23:37;;;;;;;4.93;4.32;;;19.90;99.90;;;;;;5012898;28;20033;-49
2023/12/28 07:26:03;;;;;;;6.38;4.18;;;19.90;99.90;;;;;;5012894;28;20083;-48
2023/12/28 07:28:29;;;;;;;4.85;4.05;;;19.90;99.90;;;;;;5012802;28;20547;-48
2023/12/28 07:30:55;;;;;;;3.97;3.60;;;19.90;99.90;;;;;;5012732;28;20073;-48
2023/12/28 07:33:21;;;;;;;6.35;3.95;;;19.90;99.90;;;;;;5012824;28;20026;-48
2023/12/28 07:35:47;;;;;;;5.40;3.42;;;19.90;99.90;;;;;;5012936;28;20022;-48
2023/12/28 07:38:13;;;;;;;4.70;4.13;;;19.90;99.90;;;;;;5012668;28;20029;-48
2023/12/28 07:40:39;;;;;;;6.10;4.55;;;19.90;99.90;;;;;;5012674;28;20026;-49
2023/12/28 07:43:05;;;;;;;4.45;4.00;;;19.90;99.90;;;;;;5012576;28;20025;-49
2023/12/28 07:45:31;;;;;;;4.90;4.40;;;19.90;99.90;;;;;;5012477;28;20072;-48
2023/12/28 07:47:59;;;;;;;5.18;3.83;;;19.90;99.90;;;;;;5012672;28;20033;-49
2023/12/28 07:50:25;;;;;;;4.13;3.72;;;19.90;99.90;;;;;;5012681;28;20021;-48
2023/12/28 07:52:51;;;;;;;5.10;3.88;;;19.90;99.90;;;;;;5012745;28;20076;-48
2023/12/28 07:55:17;;;;;;;4.45;4.05;;;19.90;99.90;;;;;;5012649;28;20033;-49
2023/12/28 07:57:43;;;;;;;4.68;4.18;;;19.90;99.90;;;;;;5012401;28;20068;-48
2023/12/28 08:00:09;;;;;;;4.53;4.13;;;19.90;99.90;;;;;;5011234;28;20026;-48
2023/12/28 08:02:35;;;;;;;3.67;3.28;;;19.90;99.90;;;;;;5012176;28;20490;-48
2023/12/28 08:05:01;;;;;;;5.13;3.60;;;19.90;99.90;;;;;;5012309;28;20114;-48
2023/12/28 08:07:26;;;;;;;4.30;3.90;;;20.00;99.90;;;;;;5011104;28;20065;-48
2023/12/28 08:09:53;;;;;;;4.07;3.67;;;20.00;99.90;;;;;;5012315;28;20072;-47
2023/12/28 08:12:20;;;;;;;3.70;3.25;;;20.00;99.90;;;;;;5012420;28;20462;-48
2023/12/28 08:14:46;;;;;;;4.85;3.60;;;20.00;99.90;;;;;;5012257;28;20037;-48
2023/12/28 08:17:12;;;;;;;4.82;4.43;;;20.00;99.90;;;;;;5012269;28;20026;-49
2023/12/28 08:19:38;;;;;;;4.35;3.65;;;20.10;99.90;;;;;;5011175;28;20033;-49
2023/12/28 08:22:04;;;;;;;7.20;3.28;;;20.10;99.90;;;;;;5016233;28;20113;-49
2023/12/28 08:24:30;;;;;;;5.13;4.15;;;20.10;99.90;;;;;;5016276;28;20101;-49
2023/12/28 08:26:59;;;;;;;5.47;3.92;;;20.10;99.90;;;;;;5016043;28;20053;-49
2023/12/28 08:29:26;;;;;;;5.90;4.13;;;20.20;99.90;;;;;;5016037;28;20466;-49
2023/12/28 08:31:52;;;;;;;4.03;3.63;;;20.20;99.90;;;;;;5015040;28;20030;-49
2023/12/28 08:34:18;;;;;;;3.67;3.33;;;20.30;99.90;;;;;;5015992;28;20533;-49
2023/12/28 08:36:43;;;;;;;4.82;3.83;;;20.30;99.90;;;;;;5016044;28;20060;-49
2023/12/28 08:39:09;;;;;;;4.97;4.43;;;20.30;99.90;;;;;;5015839;28;20018;-49
2023/12/28 08:41:35;;;;;;;5.43;4.07;;;20.30;99.90;;;;;;5015826;28;20477;-49
2023/12/28 08:44:01;;;;;;;4.28;3.70;;;20.40;99.90;;;;;;5015788;28;20025;-49
2023/12/28 08:46:27;;;;;;;4.88;4.22;;;20.40;99.90;;;;;;5015767;28;20030;-48
2023/12/28 08:48:53;;;;;;;4.20;3.80;;;20.40;99.90;;;;;;5015762;28;20030;-49
2023/12/28 08:51:20;;;;;;;6.80;4.55;;;20.50;99.90;;;;;;5015656;28;20052;-49
2023/12/28 08:53:46;;;;;;;4.55;4.15;;;20.50;99.90;;;;;;5015605;28;20025;-49
2023/12/28 08:56:22;;;;;;;5.20;4.18;;;20.50;99.90;;;;;;5015580;28;20196;-48
2023/12/28 08:58:49;;;;;;;5.20;4.63;;;20.50;99.90;;;;;;5015418;28;20102;-49
2023/12/28 09:01:17;;;;;;;4.18;3.70;;;20.50;99.90;;;;;;5015309;28;20419;-48
2023/12/28 09:03:43;;;;;;;6.30;3.92;;;20.50;99.90;;;;;;5015368;28;20026;-49
2023/12/28 09:06:09;;;;;;;6.35;4.82;;;20.50;99.90;;;;;;5015692;28;20041;-49
2023/12/28 09:08:35;;;;;;;5.13;3.95;;;20.60;99.90;;;;;;5014940;28;20135;-49
2023/12/28 09:11:01;;;;;;;7.10;4.18;;;20.60;99.90;;;;;;5014049;28;20022;-49
2023/12/28 09:13:27;;;;;;;6.13;4.35;;;20.60;99.90;;;;;;5015217;28;20030;-49
2023/12/28 09:15:52;;;;;;;4.93;4.22;;;20.60;99.90;;;;;;5015186;28;20022;-48
2023/12/28 09:18:18;;;;;;;5.45;3.90;;;20.70;99.90;;;;;;5015144;28;20036;-48
2023/12/28 09:20:44;;;;;;;5.95;3.97;;;20.70;99.90;;;;;;5015162;28;20423;-48
2023/12/28 09:23:10;;;;;;;4.18;3.78;;;20.80;99.90;;;;;;5014915;28;20030;-48
2023/12/28 09:25:38;;;;;;;6.65;4.70;;;20.70;99.90;;;;;;5014990;28;20539;-49
2023/12/28 09:28:05;;;;;;;4.22;3.67;;;20.80;99.90;;;;;;5014951;28;20030;-48
2023/12/28 09:30:31;;;;;;;4.20;3.63;;;20.80;99.90;;;;;;5014684;28;20029;-48
2023/12/28 09:32:57;;;;;;;5.13;4.38;;;20.80;99.90;;;;;;5014991;28;20237;-49
2023/12/28 09:35:22;;;;;;;4.45;4.03;;;20.80;99.90;;;;;;5015007;28;20022;-49
2023/12/28 09:37:48;;;;;;;5.53;4.53;;;20.80;99.90;;;;;;5014601;28;20100;-49
2023/12/28 09:40:15;;;;;;;4.78;4.28;;;20.90;99.90;;;;;;5013663;28;20030;-49
2023/12/28 09:42:53;;;;;;;6.38;4.63;;;20.90;99.90;;;;;;5014647;28;20025;-49
2023/12/28 09:45:20;;;;;;;5.07;4.32;;;20.90;99.90;;;;;;5014544;28;20084;-49
2023/12/28 09:47:49;;;;;;;8.33;5.27;;;20.90;99.90;;;;;;5014464;28;20462;-49
2023/12/28 09:50:18;;;;;;;5.50;4.85;;;20.90;99.90;;;;;;5014537;28;20022;-49
2023/12/28 09:52:43;;;;;;;5.63;4.95;;;20.90;99.90;;;;;;5014490;28;20058;-50
2023/12/28 09:55:09;;;;;;;4.93;4.43;;;20.90;99.90;;;;;;5014542;28;20025;-49
2023/12/28 09:57:37;;;;;;;6.90;4.95;;;20.90;99.90;;;;;;5014485;28;20116;-49
2023/12/28 10:00:06;;;;;;;6.43;4.55;;;20.90;99.90;;;;;;5014446;28;20030;-49
2023/12/28 10:02:33;;;;;;;5.95;4.28;;;20.90;99.90;;;;;;5014081;28;20128;-49
2023/12/28 10:04:59;;;;;;;5.43;4.65;;;20.90;99.90;;;;;;5014187;28;20026;-50
2023/12/28 10:07:26;;;;;;;8.02;5.00;;;20.90;99.90;;;;;;5014290;28;20034;-49
2023/12/28 10:09:52;;;;;;;4.75;4.28;;;20.90;99.90;;;;;;5014024;28;20546;-49
2023/12/28 10:12:19;;;;;;;5.57;4.63;;;20.90;99.90;;;;;;5013952;28;20030;-49
2023/12/28 10:14:44;;;;;;;7.82;5.20;;;20.90;99.90;;;;;;5014044;28;20080;-49
2023/12/28 10:17:10;;;;;;;4.70;4.20;;;20.90;99.90;;;;;;5013982;28;20021;-49
2023/12/28 10:19:37;;;;;;;6.75;5.03;;;21.00;99.90;;;;;;5013833;28;20029;-48
2023/12/28 10:22:04;;;;;;;5.47;4.10;;;21.00;99.90;;;;;;5012734;28;20058;-48
2023/12/28 10:24:30;;;;;;;7.43;4.85;;;21.00;99.90;;;;;;5013863;28;20767;-48
2023/12/28 10:26:56;;;;;;;6.97;4.95;;;21.00;99.90;;;;;;5014003;28;20038;-49
2023/12/28 10:29:25;;;;;;;5.35;4.18;;;21.10;99.90;;;;;;5013589;28;20033;-49
2023/12/28 10:31:51;;;;;;;4.68;4.22;;;21.00;99.90;;;;;;5013718;28;20434;-48
2023/12/28 10:34:18;;;;;;;4.82;4.07;;;21.10;99.90;;;;;;5013556;28;20064;-49
2023/12/28 10:36:47;;;;;;;6.83;4.83;;;21.10;99.90;;;;;;5013581;28;20026;-48
2023/12/28 10:39:19;;;;;;;6.97;5.07;;;21.20;99.90;;;;;;5013613;28;20282;-48
2023/12/28 10:41:49;;;;;;;4.88;4.07;;;21.30;99.90;;;;;;5013449;28;20112;-49
2023/12/28 10:44:20;;;;;;;5.85;4.10;;;21.30;99.90;;;;;;5012699;28;20102;-49
2023/12/28 10:46:51;;;;;;;4.97;4.25;;;21.30;99.90;;;;;;5013574;28;20056;-49
2023/12/28 10:49:21;;;;;;;6.85;4.10;;;21.40;99.90;;;;;;5013346;28;20038;-49
2023/12/28 10:51:52;;;;;;;4.60;3.95;;;21.50;99.90;;;;;;5013341;28;20052;-48
2023/12/28 10:54:41;;;;;;;5.25;4.50;;;21.50;99.90;;;;;;5013313;28;20026;-49
2023/12/28 10:57:27;;;;;;;5.93;4.28;;;21.50;99.90;;;;;;5013266;28;20501;-49
2023/12/28 11:00:13;;;;;;;5.33;4.13;;;21.50;99.90;;;;;;5013109;28;20055;-49
2023/12/28 11:02:44;;;;;;;5.07;4.55;;;21.60;99.90;;;;;;5012852;28;20072;-49
2023/12/28 11:05:13;;;;;;;6.88;4.78;;;21.60;99.90;;;;;;5013029;28;20025;-48
2023/12/28 11:07:41;;;;;;;5.93;4.20;;;21.60;99.90;;;;;;5012903;28;20026;-48
2023/12/28 11:10:07;;;;;;;9.65;4.72;;;21.60;99.90;;;;;;5012908;28;20390;-49
2023/12/28 11:12:35;;;;;;;4.80;4.25;;;21.70;99.90;;;;;;5012824;28;20047;-48
2023/12/28 11:15:03;;;;;;;6.28;4.30;;;21.60;99.90;;;;;;5013101;28;20041;-49
2023/12/28 11:17:31;;;;;;;5.35;4.13;;;21.70;99.90;;;;;;5013046;28;20018;-48
2023/12/28 11:19:58;;;;;;;4.68;3.83;;;21.70;99.90;;;;;;5012901;28;20018;-48
2023/12/28 11:22:25;;;;;;;5.00;4.03;;;21.70;99.90;;;;;;5012750;28;20060;-49
2023/12/28 11:24:54;;;;;;;5.05;4.10;;;21.80;99.90;;;;;;5012756;28;20018;-48
2023/12/28 11:27:20;;;;;;;7.05;5.03;;;21.80;99.90;;;;;;5012719;28;20041;-48
2023/12/28 11:29:48;;;;;;;5.82;4.78;;;21.90;99.90;;;;;;5012663;28;20036;-48
2023/12/28 11:32:14;;;;;;;4.97;4.05;;;21.90;99.90;;;;;;5012505;28;20509;-49
2023/12/28 11:34:40;;;;;;;5.35;4.55;;;21.90;99.90;;;;;;5012700;28;20061;-49
2023/12/28 11:37:18;;;;;;;5.47;4.40;;;22.00;99.90;;;;;;5012751;28;20088;-49
2023/12/28 11:39:44;;;;;;;6.32;5.03;;;22.00;99.90;;;;;;5012623;28;20022;-49
2023/12/28 11:42:11;;;;;;;5.22;4.10;;;22.10;99.90;;;;;;5012546;28;20120;-49
2023/12/28 11:44:44;;;;;;;5.68;4.47;;;22.10;99.90;;;;;;5012490;28;20418;-49
2023/12/28 11:47:21;;;;;;;6.13;4.30;;;22.10;99.90;;;;;;5012419;28;20026;-49
2023/12/28 11:49:48;;;;;;;5.93;4.72;;;22.20;99.90;;;;;;5012205;28;20065;-49
2023/12/28 11:52:28;;;;;;;5.18;4.68;;;22.20;99.90;;;;;;5011379;28;20104;-49
2023/12/28 11:54:55;;;;;;;7.03;5.10;;;22.30;99.90;;;;;;5012317;28;20046;-48
2023/12/28 11:57:21;;;;;;;6.68;4.70;;;22.20;99.90;;;;;;5012350;28;20022;-49
2023/12/28 11:59:53;;;;;;;6.95;4.63;;;22.20;99.90;;;;;;5012254;28;20026;-49
2023/12/28 12:02:20;;;;;;;6.22;4.50;;;22.30;99.90;;;;;;5012378;28;20045;-49
2023/12/28 12:04:46;;;;;;;7.65;4.82;;;22.30;99.90;;;;;;5012538;28;20026;-49
2023/12/28 12:07:11;;;;;;;5.97;4.40;;;22.30;99.90;;;;;;5012374;28;20102;-49
2023/12/28 12:09:37;;;;;;;5.28;4.30;;;22.40;99.90;;;;;;5012212;28;20038;-49
2023/12/28 12:12:04;;;;;;;5.47;4.47;;;22.40;99.90;;;;;;5012479;28;20026;-50
2023/12/28 12:14:31;;;;;;;6.87;4.57;;;22.40;99.90;;;;;;5012379;28;20030;-48
2023/12/28 12:16:58;;;;;;;6.32;4.55;;;22.40;99.90;;;;;;5012379;28;20346;-49
2023/12/28 12:19:25;;;;;;;6.43;4.68;;;22.50;99.90;;;;;;5012292;28;20068;-49
2023/12/28 12:21:52;;;;;;;7.93;4.47;;;22.50;99.90;;;;;;5012249;28;20026;-48
2023/12/28 12:24:19;;;;;;;6.38;4.75;;;22.50;99.90;;;;;;5012375;28;20105;-48
2023/12/28 12:26:51;;;;;;;6.30;5.20;;;22.50;99.90;;;;;;5012356;28;20022;-48
2023/12/28 12:29:18;;;;;;;5.40;4.45;;;22.60;99.90;;;;;;5010818;28;20482;-49
2023/12/28 12:31:46;;;;;;;4.30;3.85;;;22.60;99.90;;;;;;5012017;28;20030;-48
2023/12/28 12:34:15;;;;;;;5.18;4.28;;;22.50;99.90;;;;;;5012155;28;20022;-49
2023/12/28 12:36:41;;;;;;;6.05;4.70;;;22.60;99.90;;;;;;5012092;28;20398;-49
2023/12/28 12:39:08;;;;;;;6.40;4.63;;;22.60;99.90;;;;;;5012091;28;20424;-50
2023/12/28 12:41:34;;;;;;;5.15;4.60;;;22.60;99.90;;;;;;5012159;28;20053;-49
2023/12/28 12:44:00;;;;;;;6.18;5.10;;;22.60;99.90;;;;;;5011925;28;20030;-48
2023/12/28 12:46:27;;;;;;;5.47;4.55;;;22.60;99.90;;;;;;5012058;28;20635;-49
2023/12/28 12:49:01;;;;;;;4.97;4.45;;;22.60;99.90;;;;;;5011943;28;20030;-48